Time;durP1;ratioP1;P1;durP2;ratioP2;P2;SDS_P1;SDS_P2;PMS_P1;PMS_P2;Temp;Humidity;BMP_temperature;BMP_pressure;BME280_temperature;BME280_humidity;BME280_pressure;Samples;Min_cycle;Max_cycle;Signal;HPM_P1;HPM_P2
2023/07/01 00:02:24;;;;;;;48.55;29.20;;;;;;;17.86;100.00;95772.81;5053696;28;20040;-75
2023/07/01 00:04:52;;;;;;;47.60;28.70;;;;;;;17.89;100.00;95772.81;5054822;28;20056;-75
2023/07/01 00:07:19;;;;;;;41.08;27.42;;;;;;;17.88;100.00;95771.25;5054707;28;20049;-75
2023/07/01 00:09:45;;;;;;;42.78;28.13;;;;;;;17.92;100.00;95766.56;5050143;28;20037;-75
2023/07/01 00:12:12;;;;;;;47.63;30.05;;;;;;;17.88;100.00;95765.75;5052755;28;20049;-75
2023/07/01 00:14:38;;;;;;;47.88;29.63;;;;;;;17.89;100.00;95759.06;5059730;28;20557;-75
2023/07/01 00:17:05;;;;;;;43.33;27.10;;;;;;;17.95;100.00;95765.78;5067212;28;20044;-75
2023/07/01 00:19:31;;;;;;;45.92;26.58;;;;;;;17.98;100.00;95765.03;5053853;28;20045;-75
2023/07/01 00:21:59;;;;;;;47.58;28.25;;;;;;;17.97;100.00;95763.47;5053271;28;20094;-75
2023/07/01 00:24:26;;;;;;;43.28;27.58;;;;;;;17.96;100.00;95761.09;5053306;28;20055;-75
2023/07/01 00:26:52;;;;;;;43.47;27.55;;;;;;;17.97;100.00;95757.97;5053644;28;20067;-75
2023/07/01 00:29:19;;;;;;;43.72;27.13;;;;;;;17.98;100.00;95759.53;5053017;28;20512;-75
2023/07/01 00:31:45;;;;;;;44.78;27.65;;;;;;;17.97;100.00;95763.47;5053528;28;20048;-75
2023/07/01 00:34:12;;;;;;;43.88;28.38;;;;;;;17.98;100.00;95759.53;5052429;28;20044;-75
2023/07/01 00:36:38;;;;;;;41.72;27.83;;;;;;;17.99;100.00;95772.13;5053366;28;20044;-76
2023/07/01 00:39:06;;;;;;;48.30;30.83;;;;;;;17.85;100.00;95766.50;5052851;28;20045;-75
2023/07/01 00:41:32;;;;;;;46.38;27.98;;;;;;;17.85;100.00;95763.72;5052934;28;20041;-75
2023/07/01 00:43:59;;;;;;;45.55;28.10;;;;;;;17.84;100.00;95759.41;5056655;28;20056;-75
2023/07/01 00:46:25;;;;;;;46.90;28.88;;;;;;;17.87;100.00;95769.66;5052432;28;20048;-75
2023/07/01 00:48:53;;;;;;;51.08;30.17;;;;;;;17.79;100.00;95768.00;5053189;28;20064;-75
2023/07/01 00:51:19;;;;;;;44.78;28.98;;;;;;;17.69;100.00;95768.66;5052503;28;20041;-75
2023/07/01 00:53:46;;;;;;;45.35;27.30;;;;;;;17.76;100.00;95768.78;5052882;28;20044;-75
2023/07/01 00:56:14;;;;;;;44.30;28.42;;;;;;;17.74;100.00;95763.63;5052596;28;20045;-75
2023/07/01 00:58:40;;;;;;;47.83;28.20;;;;;;;17.76;100.00;95757.75;5052514;28;20051;-76
2023/07/01 01:01:12;;;;;;;46.53;29.35;;;;;;;17.77;100.00;95762.09;5051959;28;20037;-75
2023/07/01 01:03:47;;;;;;;45.28;28.30;;;;;;;17.80;100.00;95766.84;5052808;28;20072;-75
2023/07/01 01:06:19;;;;;;;46.58;28.85;;;;;;;17.80;100.00;95764.09;5052566;28;20447;-75
2023/07/01 01:08:56;;;;;;;42.15;27.00;;;;;;;17.80;100.00;95766.03;5052313;28;20044;-75
2023/07/01 01:11:26;;;;;;;39.47;25.95;;;;;;;17.83;100.00;95765.28;5050938;28;20103;-75
2023/07/01 01:13:54;;;;;;;44.85;28.48;;;;;;;17.78;100.00;95765.63;5056071;28;20043;-75
2023/07/01 01:16:21;;;;;;;48.38;28.45;;;;;;;17.76;100.00;95757.75;5055283;28;20045;-75
2023/07/01 01:18:50;;;;;;;52.65;30.48;;;;;;;17.65;100.00;95759.59;5051914;28;20512;-75
2023/07/01 01:21:19;;;;;;;48.15;29.02;;;;;;;17.66;100.00;95763.94;5052037;28;20044;-76
2023/07/01 01:23:56;;;;;;;45.17;28.52;;;;;;;17.71;100.00;95761.63;5051637;28;20068;-76
2023/07/01 01:26:23;;;;;;;46.78;29.15;;;;;;;17.70;100.00;95762.78;5052044;28;20440;-75
2023/07/01 01:28:52;;;;;;;48.67;29.13;;;;;;;17.68;100.00;95759.59;5052420;28;20051;-75
2023/07/01 01:31:20;;;;;;;47.53;29.85;;;;;;;17.68;100.00;95761.56;5051593;28;20072;-75
2023/07/01 01:33:47;;;;;;;47.15;28.73;;;;;;;17.73;100.00;95759.31;5051841;28;20043;-75
2023/07/01 01:36:22;;;;;;;49.05;28.98;;;;;;;17.71;100.00;95756.13;5051596;28;20041;-75
2023/07/01 01:38:50;;;;;;;44.65;27.30;;;;;;;17.73;100.00;95753.00;5052346;28;20508;-76
2023/07/01 01:41:22;;;;;;;45.97;28.98;;;;;;;17.57;100.00;95760.69;5051708;28;20527;-75
2023/07/01 01:43:56;;;;;;;45.85;26.08;;;;;;;17.62;100.00;95763.09;5055544;28;20040;-76
2023/07/01 01:46:25;;;;;;;46.60;26.20;;;;;;;17.56;100.00;95761.84;5071459;28;20040;-76
2023/07/01 01:48:53;;;;;;;39.78;25.52;;;;;;;17.63;100.00;95761.91;5053360;28;20045;-76
2023/07/01 01:51:22;;;;;;;41.80;25.23;;;;;;;17.58;100.00;95762.25;5051416;28;20045;-75
2023/07/01 01:53:51;;;;;;;38.55;24.08;;;;;;;17.65;100.00;95762.34;5051315;28;20041;-76
2023/07/01 01:56:18;;;;;;;42.95;25.58;;;;;;;17.61;100.00;95761.50;5051456;28;20044;-75
2023/07/01 01:58:47;;;;;;;44.85;24.38;;;;;;;17.36;100.00;95761.25;5051951;28;20041;-75
2023/07/01 02:01:15;;;;;;;38.70;22.45;;;;;;;17.46;100.00;95763.31;5050946;28;20040;-75
2023/07/01 02:03:44;;;;;;;34.42;21.45;;;;;;;17.55;100.00;95757.53;5051211;28;20033;-76
2023/07/01 02:06:10;;;;;;;40.88;23.58;;;;;;;17.55;100.00;95763.81;5051352;28;20492;-76
2023/07/01 02:08:37;;;;;;;40.58;23.08;;;;;;;17.54;100.00;95764.16;5051817;28;20045;-75
2023/07/01 02:11:03;;;;;;;39.35;23.02;;;;;;;17.50;100.00;95760.63;5051190;28;20045;-76
2023/07/01 02:13:30;;;;;;;39.85;22.65;;;;;;;17.53;100.00;95762.59;5052357;28;20098;-75
2023/07/01 02:15:56;;;;;;;35.80;20.52;;;;;;;17.60;100.00;95768.97;5055856;28;20045;-75
2023/07/01 02:18:24;;;;;;;35.75;21.73;;;;;;;17.47;100.00;95757.44;5050857;28;20045;-75
2023/07/01 02:20:51;;;;;;;35.45;22.20;;;;;;;17.46;100.00;95760.56;5051034;28;20404;-76
2023/07/01 02:23:17;;;;;;;38.05;21.38;;;;;;;17.44;100.00;95760.94;5051078;28;20051;-76
2023/07/01 02:25:46;;;;;;;39.08;21.77;;;;;;;17.36;100.00;95762.03;5051168;28;20385;-76
2023/07/01 02:28:13;;;;;;;35.53;22.17;;;;;;;17.21;100.00;95772.06;5050855;28;20132;-75
2023/07/01 02:30:40;;;;;;;35.15;21.08;;;;;;;17.27;100.00;95763.47;5050830;28;20098;-75
2023/07/01 02:33:06;;;;;;;34.85;19.80;;;;;;;17.32;100.00;95761.19;5050382;28;20045;-76
2023/07/01 02:35:34;;;;;;;34.58;20.42;;;;;;;17.34;100.00;95769.88;5050085;28;20047;-76
2023/07/01 02:38:00;;;;;;;37.75;20.15;;;;;;;17.28;100.00;95768.63;5051343;28;20045;-75
2023/07/01 02:40:27;;;;;;;37.45;20.77;;;;;;;17.29;100.00;95770.22;5050263;28;20041;-76
2023/07/01 02:42:54;;;;;;;41.35;21.65;;;;;;;17.28;100.00;95759.56;5051054;28;20083;-76
2023/07/01 02:45:20;;;;;;;34.80;20.08;;;;;;;17.32;100.00;95763.94;5055572;28;20041;-76
2023/07/01 02:47:47;;;;;;;29.88;18.33;;;;;;;17.35;100.00;95760.44;5051071;28;20045;-75
2023/07/01 02:50:13;;;;;;;31.80;19.42;;;;;;;17.34;100.00;95769.88;5050114;28;20045;-75
2023/07/01 02:52:41;;;;;;;31.35;18.67;;;;;;;17.24;100.00;95756.00;5050769;28;20052;-75
2023/07/01 02:55:08;;;;;;;34.22;19.42;;;;;;;17.20;100.00;95764.19;5049899;28;20128;-75
2023/07/01 02:57:34;;;;;;;27.60;17.92;;;;;;;17.27;100.00;95764.28;5050318;28;20048;-76
2023/07/01 03:00:01;;;;;;;37.03;19.45;;;;;;;17.18;100.00;95767.34;5050381;28;20037;-76
2023/07/01 03:02:28;;;;;;;35.80;18.98;;;;;;;17.20;100.00;95764.19;5049866;28;20041;-75
2023/07/01 03:04:54;;;;;;;29.33;17.70;;;;;;;17.17;100.00;95770.44;5050638;28;20650;-75
2023/07/01 03:07:21;;;;;;;30.63;18.33;;;;;;;17.18;100.00;95770.09;5050154;28;20041;-75
2023/07/01 03:09:49;;;;;;;35.22;18.10;;;;;;;17.20;100.00;95775.22;5050203;28;20041;-75
2023/07/01 03:12:15;;;;;;;30.85;17.75;;;;;;;17.24;100.00;95775.25;5049790;28;20045;-76
2023/07/01 03:14:42;;;;;;;32.15;17.92;;;;;;;17.23;100.00;95774.47;5054409;28;20510;-76
2023/07/01 03:17:09;;;;;;;30.65;17.73;;;;;;;17.24;100.00;95772.50;5049699;28;20045;-76
2023/07/01 03:19:36;;;;;;;25.95;16.08;;;;;;;17.28;100.00;95771.38;5050227;28;20487;-75
2023/07/01 03:22:03;;;;;;;28.50;17.33;;;;;;;17.31;100.00;95769.81;5049741;28;20045;-75
2023/07/01 03:24:33;;;;;;;33.20;19.30;;;;;;;17.21;100.00;95771.28;5050230;28;20041;-75
2023/07/01 03:27:02;;;;;;;28.02;17.42;;;;;;;17.30;100.00;95769.03;5050288;28;20132;-76
2023/07/01 03:29:29;;;;;;;28.83;16.02;;;;;;;17.33;100.00;95768.31;5071456;28;20036;-75
2023/07/01 03:31:55;;;;;;;29.17;16.08;;;;;;;17.35;99.60;95779.72;5069539;28;20040;-75
2023/07/01 03:34:22;;;;;;;23.55;14.75;;;;;;;17.39;99.56;95780.56;5057969;28;20053;-75
2023/07/01 03:36:49;;;;;;;32.08;16.42;;;;;;;17.34;99.62;95775.38;5050040;28;20095;-75
2023/07/01 03:39:16;;;;;;;32.25;16.80;;;;;;;17.36;100.00;95784.03;5049406;28;20049;-75
2023/07/01 03:41:44;;;;;;;29.38;16.38;;;;;;;17.24;99.54;95778.81;5049731;28;20041;-75
2023/07/01 03:44:12;;;;;;;26.27;15.63;;;;;;;17.25;100.00;95779.59;5073962;28;20040;-76
2023/07/01 03:46:39;;;;;;;26.83;15.60;;;;;;;17.21;100.00;95774.03;5084715;28;20067;-75
2023/07/01 03:49:06;;;;;;;25.80;15.27;;;;;;;17.12;100.00;95773.53;5069432;28;20040;-75
2023/07/01 03:51:32;;;;;;;25.33;14.90;;;;;;;17.02;100.00;95769.50;5069602;28;20041;-75
2023/07/01 03:53:59;;;;;;;23.23;13.88;;;;;;;17.07;100.00;95776.59;5070008;28;20423;-75
2023/07/01 03:56:26;;;;;;;28.88;15.23;;;;;;;17.06;100.00;95770.31;5057146;28;20053;-75
2023/07/01 03:58:53;;;;;;;25.95;14.23;;;;;;;17.05;100.00;95774.22;5065190;28;20051;-75
2023/07/01 04:01:23;;;;;;;23.75;14.23;;;;;;;16.86;100.00;95777.13;5072514;28;20102;-76
2023/07/01 04:03:49;;;;;;;24.98;13.93;;;;;;;16.65;100.00;95772.09;5063909;28;20098;-75
2023/07/01 04:06:16;;;;;;;21.25;13.38;;;;;;;16.81;100.00;95783.75;5056593;28;20037;-75
2023/07/01 04:08:42;;;;;;;25.27;15.68;;;;;;;16.80;100.00;95782.16;5053186;28;20041;-75
2023/07/01 04:11:09;;;;;;;22.15;14.40;;;;;;;16.88;100.00;95775.59;5067378;28;20043;-75
2023/07/01 04:13:35;;;;;;;26.58;14.23;;;;;;;16.87;100.00;95779.50;5071568;28;20055;-75
2023/07/01 04:16:02;;;;;;;25.25;15.63;;;;;;;16.76;100.00;95777.75;5064674;28;20067;-75
2023/07/01 04:18:29;;;;;;;23.73;14.20;;;;;;;16.84;100.00;95777.50;5061528;28;20040;-75
2023/07/01 04:20:56;;;;;;;21.02;13.18;;;;;;;16.43;100.00;95776.47;5069152;28;20068;-76
2023/07/01 04:23:22;;;;;;;20.25;12.35;;;;;;;16.53;100.00;95786.84;5060969;28;20298;-76
2023/07/01 04:25:49;;;;;;;20.35;12.52;;;;;;;16.37;100.00;95789.75;5062952;28;20045;-75
2023/07/01 04:28:16;;;;;;;21.88;11.27;;;;;;;16.53;100.00;95797.03;5059200;28;20044;-76
2023/07/01 04:30:42;;;;;;;18.65;11.10;;;;;;;16.62;100.00;95790.13;5069458;28;20498;-76
2023/07/01 04:33:08;;;;;;;19.40;10.75;;;;;;;16.53;99.27;95797.84;5068989;28;20467;-75
2023/07/01 04:35:36;;;;;;;19.45;10.50;;;;;;;16.51;99.38;95800.16;5069391;28;20060;-75
2023/07/01 04:38:03;;;;;;;17.13;9.93;;;;;;;16.53;98.83;95797.03;5060346;28;20048;-75
2023/07/01 04:40:30;;;;;;;18.77;10.32;;;;;;;16.38;99.46;95790.53;5049134;28;20037;-75
2023/07/01 04:42:56;;;;;;;16.13;9.35;;;;;;;16.18;97.44;95795.31;5049339;28;20411;-76
2023/07/01 04:45:23;;;;;;;14.57;8.95;;;;;;;15.82;99.22;95802.19;5073556;28;20049;-75
2023/07/01 04:47:49;;;;;;;14.52;9.15;;;;;;;15.66;100.00;95799.53;5068953;28;20097;-75
2023/07/01 04:50:16;;;;;;;14.40;8.80;;;;;;;15.36;100.00;95808.34;5066672;28;20510;-75
2023/07/01 04:52:45;;;;;;;20.50;9.18;;;;;;;15.24;100.00;95805.72;5055025;28;20491;-75
2023/07/01 04:55:11;;;;;;;12.70;8.70;;;;;;;15.34;100.00;95810.63;5068665;28;20411;-75
2023/07/01 04:57:38;;;;;;;25.40;10.40;;;;;;;15.24;100.00;95815.91;5065364;28;20381;-75
2023/07/01 05:00:09;;;;;;;13.25;9.32;;;;;;;15.12;100.00;95825.06;5052933;28;20063;-76
2023/07/01 05:02:35;;;;;;;13.27;8.77;;;;;;;14.98;100.00;95827.50;5053110;28;20045;-75
2023/07/01 05:05:02;;;;;;;14.48;8.90;;;;;;;14.86;100.00;95829.22;5052483;28;20060;-76
2023/07/01 05:07:28;;;;;;;17.60;9.65;;;;;;;15.01;100.00;95829.53;5056862;28;20051;-75
2023/07/01 05:09:56;;;;;;;17.35;9.48;;;;;;;14.98;100.00;95841.22;5072883;28;20047;-75
2023/07/01 05:12:23;;;;;;;15.77;9.60;;;;;;;14.78;100.00;95832.97;5052704;28;20131;-75
2023/07/01 05:14:49;;;;;;;15.75;9.85;;;;;;;14.75;100.00;95827.41;5052301;28;20049;-74
2023/07/01 05:17:16;;;;;;;16.83;9.57;;;;;;;14.92;100.00;95839.91;5054155;28;20041;-75
2023/07/01 05:19:42;;;;;;;12.93;8.55;;;;;;;15.13;100.00;95837.63;5072512;28;20499;-74
2023/07/01 05:22:09;;;;;;;13.07;7.75;;;;;;;15.27;100.00;95837.94;5071788;28;20036;-75
2023/07/01 05:24:35;;;;;;;12.90;8.10;;;;;;;15.36;100.00;95840.47;5072465;28;20410;-74
2023/07/01 05:27:04;;;;;;;12.52;7.38;;;;;;;15.48;100.00;95850.50;5071813;28;20121;-75
2023/07/01 05:29:31;;;;;;;13.60;7.32;;;;;;;15.57;100.00;95848.34;5052338;28;20041;-75
2023/07/01 05:31:57;;;;;;;11.15;7.28;;;;;;;15.62;100.00;95853.53;5067905;28;20499;-75
2023/07/01 05:34:25;;;;;;;9.82;7.40;;;;;;;15.67;100.00;95855.22;5052073;28;20045;-74
2023/07/01 05:36:52;;;;;;;12.63;7.50;;;;;;;15.72;100.00;95858.47;5052224;28;20130;-75
2023/07/01 05:39:18;;;;;;;10.57;7.38;;;;;;;15.69;100.00;95850.94;5070804;28;20041;-75
2023/07/01 05:41:45;;;;;;;13.40;7.93;;;;;;;15.61;100.00;95860.19;5072250;28;20037;-74
2023/07/01 05:44:13;;;;;;;14.10;7.70;;;;;;;15.43;100.00;95859.03;5076885;28;20052;-76
2023/07/01 05:46:40;;;;;;;11.65;7.88;;;;;;;15.51;100.00;95858.81;5071730;28;20045;-75
2023/07/01 05:49:07;;;;;;;11.70;7.80;;;;;;;15.42;100.00;95860.19;5071474;28;20484;-75
2023/07/01 05:51:33;;;;;;;12.10;8.10;;;;;;;15.45;100.00;95862.19;5071963;28;20045;-74
2023/07/01 05:54:00;;;;;;;12.55;6.75;;;;;;;15.57;100.00;95867.53;5071926;28;20041;-75
2023/07/01 05:56:26;;;;;;;9.48;7.20;;;;;;;15.70;100.00;95863.50;5063243;28;20048;-75
2023/07/01 05:58:53;;;;;;;10.68;7.20;;;;;;;15.80;100.00;95871.16;5071997;28;20049;-75
2023/07/01 06:01:21;;;;;;;9.57;6.47;;;;;;;15.57;100.00;95870.28;5068387;28;20044;-75
2023/07/01 06:03:47;;;;;;;10.52;7.72;;;;;;;15.33;100.00;95863.91;5051730;28;20431;-75
2023/07/01 06:06:14;;;;;;;15.05;8.55;;;;;;;15.14;100.00;95861.97;5051618;28;20052;-75
2023/07/01 06:08:41;;;;;;;10.63;7.82;;;;;;;15.29;100.00;95862.25;5065066;28;20055;-75
2023/07/01 06:11:08;;;;;;;13.10;8.43;;;;;;;15.44;100.00;95860.59;5053545;28;20047;-75
2023/07/01 06:13:34;;;;;;;13.52;9.38;;;;;;;15.54;100.00;95860.03;5052263;28;20045;-75
2023/07/01 06:16:01;;;;;;;11.05;8.63;;;;;;;15.73;100.00;95870.22;5052335;28;20049;-75
2023/07/01 06:18:29;;;;;;;14.35;8.85;;;;;;;15.73;100.00;95872.97;5052715;28;20052;-75
2023/07/01 06:20:55;;;;;;;14.63;9.48;;;;;;;15.53;100.00;95872.16;5051742;28;20052;-75
2023/07/01 06:23:22;;;;;;;14.18;10.07;;;;;;;15.64;100.00;95868.50;5050838;28;20056;-75
2023/07/01 06:25:48;;;;;;;18.02;10.05;;;;;;;15.64;100.00;95873.19;5066421;28;20484;-75
2023/07/01 06:28:15;;;;;;;16.75;10.05;;;;;;;15.69;100.00;95872.09;5071553;28;20639;-75
2023/07/01 06:30:41;;;;;;;15.70;10.32;;;;;;;15.73;100.00;95860.03;5071852;28;20495;-75
2023/07/01 06:33:08;;;;;;;16.80;10.82;;;;;;;15.78;100.00;95859.75;5071294;28;20684;-75
2023/07/01 06:35:41;;;;;;;14.85;10.70;;;;;;;15.87;100.00;95865.81;5058404;28;20045;-75
2023/07/01 06:38:07;;;;;;;17.35;10.82;;;;;;;15.80;100.00;95864.88;5053116;28;20041;-76
2023/07/01 06:40:34;;;;;;;16.63;11.02;;;;;;;15.76;100.00;95864.78;5055981;28;20041;-75
2023/07/01 06:43:02;;;;;;;16.48;11.00;;;;;;;15.82;100.00;95868.84;5055764;28;20068;-75
2023/07/01 06:45:29;;;;;;;15.65;10.55;;;;;;;16.03;100.00;95862.97;5082734;28;20040;-75
2023/07/01 06:47:55;;;;;;;16.80;10.82;;;;;;;16.18;100.00;95861.25;5074405;28;20047;-75
2023/07/01 06:50:22;;;;;;;16.75;10.95;;;;;;;16.30;100.00;95861.06;5072091;28;20048;-75
2023/07/01 06:52:49;;;;;;;19.08;11.32;;;;;;;16.27;100.00;95870.03;5075060;28;20131;-75
2023/07/01 06:55:16;;;;;;;17.80;11.05;;;;;;;16.32;100.00;95869.72;5064861;28;20049;-76
2023/07/01 06:57:43;;;;;;;17.70;11.10;;;;;;;16.44;100.00;95869.56;5054663;28;20129;-75
2023/07/01 07:00:12;;;;;;;15.98;10.23;;;;;;;16.66;100.00;95872.66;5059210;28;20052;-75
2023/07/01 07:02:40;;;;;;;18.48;10.35;;;;;;;16.79;100.00;95871.31;5060011;28;20045;-75
2023/07/01 07:05:08;;;;;;;13.15;9.27;;;;;;;16.85;100.00;95867.06;5067222;28;20055;-76
2023/07/01 07:07:34;;;;;;;15.23;9.73;;;;;;;16.84;100.00;95873.75;5082081;28;20048;-76
2023/07/01 07:10:03;;;;;;;14.60;9.13;;;;;;;17.00;100.00;95884.56;5071707;28;20037;-76
2023/07/01 07:12:29;;;;;;;13.32;9.13;;;;;;;16.97;100.00;95870.78;5093147;28;20407;-76
2023/07/01 07:14:56;;;;;;;15.07;9.15;;;;;;;16.74;99.40;95879.06;5079055;28;20091;-75
2023/07/01 07:17:22;;;;;;;16.10;9.25;;;;;;;16.68;99.55;95875.81;5067836;28;20514;-75
2023/07/01 07:19:49;;;;;;;16.60;9.48;;;;;;;16.70;100.00;95867.97;5050074;28;20416;-75
2023/07/01 07:22:15;;;;;;;14.13;9.02;;;;;;;16.69;100.00;95866.41;5068147;28;20041;-76
2023/07/01 07:24:42;;;;;;;11.93;8.48;;;;;;;16.84;100.00;95868.25;5064974;28;20045;-75
2023/07/01 07:27:10;;;;;;;12.95;8.60;;;;;;;16.87;99.89;95866.72;5059222;28;20047;-75
2023/07/01 07:29:37;;;;;;;12.98;8.75;;;;;;;16.83;99.17;95861.16;5070322;28;20053;-76
2023/07/01 07:32:04;;;;;;;13.85;9.50;;;;;;;17.04;100.00;95865.38;5069939;28;20045;-76
2023/07/01 07:34:30;;;;;;;17.65;9.23;;;;;;;17.21;100.00;95856.56;5065924;28;20103;-75
2023/07/01 07:36:58;;;;;;;12.27;8.38;;;;;;;17.30;99.55;95865.34;5049766;28;20506;-75
2023/07/01 07:39:24;;;;;;;15.73;8.50;;;;;;;17.13;96.46;95857.66;5069022;28;20040;-75
2023/07/01 07:41:51;;;;;;;10.85;7.85;;;;;;;17.27;97.53;95852.31;5062812;28;20124;-75
2023/07/01 07:44:19;;;;;;;11.52;7.85;;;;;;;17.39;97.53;95860.38;5051240;28;20037;-75
2023/07/01 07:46:45;;;;;;;13.23;7.82;;;;;;;17.28;93.49;95861.38;5069904;28;20040;-75
2023/07/01 07:49:11;;;;;;;12.80;7.80;;;;;;;17.15;95.22;95863.56;5067843;28;20059;-75
2023/07/01 07:51:38;;;;;;;12.82;8.40;;;;;;;17.22;94.93;95856.19;5049864;28;20052;-75
2023/07/01 07:54:05;;;;;;;11.55;8.02;;;;;;;17.27;95.76;95857.81;5049877;28;20061;-75
2023/07/01 07:56:31;;;;;;;12.38;8.70;;;;;;;17.40;95.71;95850.94;5069877;28;20044;-75
2023/07/01 07:58:58;;;;;;;13.35;8.32;;;;;;;17.42;95.14;95848.59;5061878;28;20396;-74
2023/07/01 08:01:25;;;;;;;10.57;7.28;;;;;;;17.44;94.28;95851.78;5048741;28;20044;-75
2023/07/01 08:03:52;;;;;;;14.30;7.10;;;;;;;17.55;93.24;95854.66;5049764;28;20048;-75
2023/07/01 08:06:19;;;;;;;12.05;8.10;;;;;;;17.53;91.64;95858.94;5057392;28;20079;-75
2023/07/01 08:08:45;;;;;;;12.82;7.63;;;;;;;17.40;91.85;95855.66;5049832;28;20048;-75
2023/07/01 08:11:12;;;;;;;12.75;7.47;;;;;;;17.45;91.21;95847.06;5048595;28;20044;-75
2023/07/01 08:13:39;;;;;;;11.98;7.45;;;;;;;17.50;90.87;95849.50;5049805;28;20041;-75
2023/07/01 08:16:05;;;;;;;11.32;7.38;;;;;;;17.58;91.23;95850.34;5048708;28;20037;-75
2023/07/01 08:18:33;;;;;;;12.23;7.55;;;;;;;17.63;93.88;95844.50;5049482;28;20507;-75
2023/07/01 08:21:00;;;;;;;10.55;6.75;;;;;;;17.82;91.99;95833.34;5049421;28;20067;-75
2023/07/01 08:23:26;;;;;;;10.52;6.80;;;;;;;17.97;90.04;95835.09;5061190;28;20036;-75
2023/07/01 08:25:53;;;;;;;9.00;6.50;;;;;;;18.12;87.77;95835.25;5069491;28;20040;-75
2023/07/01 08:28:22;;;;;;;10.10;6.95;;;;;;;18.06;85.35;95836.72;5069144;28;20055;-75
2023/07/01 08:30:49;;;;;;;12.85;7.07;;;;;;;18.02;86.71;95839.47;5069434;28;20045;-75
2023/07/01 08:33:15;;;;;;;10.13;6.65;;;;;;;18.05;86.51;95833.19;5071114;28;20052;-75
2023/07/01 08:35:43;;;;;;;11.55;7.43;;;;;;;18.04;84.84;95828.84;5073362;28;20127;-75
2023/07/01 08:38:10;;;;;;;11.38;7.22;;;;;;;17.99;82.44;95826.44;5073074;28;20071;-74
2023/07/01 08:40:36;;;;;;;12.45;7.00;;;;;;;18.05;82.84;95824.13;5073170;28;20048;-75
2023/07/01 08:43:05;;;;;;;11.23;6.57;;;;;;;18.17;83.44;95821.91;5072843;28;20056;-75
2023/07/01 08:45:32;;;;;;;10.32;7.05;;;;;;;18.09;80.38;95824.97;5072714;28;20049;-75
2023/07/01 08:48:00;;;;;;;8.52;6.40;;;;;;;18.03;80.93;95826.47;5073351;28;20086;-75
2023/07/01 08:50:32;;;;;;;11.27;6.40;;;;;;;18.06;80.99;95826.50;5069000;28;20041;-75
2023/07/01 08:53:04;;;;;;;12.77;6.68;;;;;;;18.19;79.36;95830.56;5053490;28;20033;-75
2023/07/01 08:55:31;;;;;;;12.57;6.68;;;;;;;18.30;79.76;95829.88;5065308;28;20071;-75
2023/07/01 08:57:58;;;;;;;10.73;6.43;;;;;;;18.35;78.68;95824.00;5073142;28;20045;-75
2023/07/01 09:00:25;;;;;;;11.57;6.60;;;;;;;18.57;79.95;95822.22;5072415;28;20407;-75
2023/07/01 09:02:53;;;;;;;8.93;6.53;;;;;;;18.67;79.32;95827.03;5065855;28;20048;-75
2023/07/01 09:05:19;;;;;;;10.77;6.05;;;;;;;18.59;76.58;95828.16;5060216;28;20053;-75
2023/07/01 09:07:46;;;;;;;8.73;5.85;;;;;;;18.67;75.25;95821.50;5053024;28;20052;-75
2023/07/01 09:10:13;;;;;;;10.52;5.78;;;;;;;18.73;72.70;95828.28;5070462;28;20049;-75
2023/07/01 09:12:40;;;;;;;10.48;5.90;;;;;;;18.76;77.75;95830.28;5073457;28;20052;-75
2023/07/01 09:15:08;;;;;;;9.13;5.90;;;;;;;18.88;73.33;95831.91;5074899;28;20488;-76
2023/07/01 09:17:36;;;;;;;7.63;5.30;;;;;;;19.02;75.54;95819.00;5073001;28;20052;-75
2023/07/01 09:20:05;;;;;;;12.75;6.10;;;;;;;18.69;71.33;95820.00;5072148;28;20048;-75
2023/07/01 09:22:32;;;;;;;8.55;5.85;;;;;;;18.91;74.95;95812.63;5060644;28;20099;-75
2023/07/01 09:24:59;;;;;;;6.38;4.88;;;;;;;19.20;73.53;95810.03;5060671;28;20495;-75
2023/07/01 09:27:40;;;;;;;7.43;4.93;;;;;;;19.20;69.47;95812.78;5072345;28;20048;-74
2023/07/01 09:30:24;;;;;;;8.60;4.75;;;;;;;18.94;67.13;95814.59;5072354;28;20048;-75
2023/07/01 09:32:50;;;;;;;7.13;4.35;;;;;;;19.00;69.83;95807.56;5066138;28;20044;-74
2023/07/01 09:35:17;;;;;;;8.30;5.13;;;;;;;18.98;66.04;95809.91;5062236;28;20106;-75
2023/07/01 09:37:43;;;;;;;6.57;4.03;;;;;;;19.06;67.58;95812.72;5072906;28;20052;-74
2023/07/01 09:40:19;;;;;;;7.75;4.38;;;;;;;19.24;68.17;95800.59;5072616;28;20036;-75
2023/07/01 09:42:52;;;;;;;6.95;4.50;;;;;;;19.49;64.54;95800.69;5073767;28;20484;-74
2023/07/01 09:45:18;;;;;;;8.32;4.72;;;;;;;19.47;63.96;95805.00;5077676;28;20048;-74
2023/07/01 09:47:45;;;;;;;6.70;4.07;;;;;;;19.43;62.84;95796.72;5074348;28;20036;-75
2023/07/01 09:50:22;;;;;;;4.45;3.30;;;;;;;19.51;66.45;95792.78;5074048;28;20044;-75
2023/07/01 09:52:50;;;;;;;5.03;3.63;;;;;;;19.74;65.12;95794.50;5073226;28;20040;-75
2023/07/01 09:55:17;;;;;;;5.38;3.40;;;;;;;19.91;66.58;95793.72;5061699;28;20040;-76
2023/07/01 09:57:44;;;;;;;6.07;3.33;;;;;;;19.96;62.98;95790.59;5057560;28;20047;-74
2023/07/01 10:00:15;;;;;;;6.95;3.90;;;;;;;19.86;62.97;95791.34;5071856;28;20041;-75
2023/07/01 10:02:43;;;;;;;5.78;3.35;;;;;;;19.89;60.61;95787.00;5071805;28;20056;-75
2023/07/01 10:05:10;;;;;;;6.40;3.42;;;;;;;19.79;61.74;95781.09;5069800;28;20523;-75
2023/07/01 10:07:37;;;;;;;6.10;3.45;;;;;;;19.69;60.13;95786.59;5064958;28;20037;-75
2023/07/01 10:10:04;;;;;;;7.05;3.20;;;;;;;19.55;61.80;95776.25;5054591;28;20037;-75
2023/07/01 10:12:31;;;;;;;6.63;3.10;;;;;;;19.76;61.38;95773.56;5051537;28;20052;-75
2023/07/01 10:14:59;;;;;;;6.47;3.50;;;;;;;19.74;59.62;95772.41;5059439;28;20047;-75
2023/07/01 10:17:45;;;;;;;8.13;3.75;;;;;;;19.92;60.20;95772.41;5067362;28;20037;-75
2023/07/01 10:20:25;;;;;;;6.40;3.47;;;;;;;20.03;61.83;95762.94;5050898;28;20515;-74
2023/07/01 10:22:54;;;;;;;7.03;3.45;;;;;;;20.18;59.73;95757.44;5058062;28;20052;-75
2023/07/01 10:25:30;;;;;;;4.45;3.50;;;;;;;20.44;60.57;95754.25;5068201;28;20048;-75
2023/07/01 10:28:06;;;;;;;6.65;3.08;;;;;;;20.73;59.03;95759.81;5051565;28;20045;-75
2023/07/01 10:31:11;;;;;;;6.50;3.20;;;;;;;20.73;56.13;95765.34;5090818;28;20073;-75
2023/07/01 10:33:57;;;;;;;4.40;2.65;;;;;;;20.52;55.41;95761.41;5090967;28;20097;-74
2023/07/01 10:36:25;;;;;;;5.13;2.70;;;;;;;20.61;57.16;95763.75;5091035;28;20043;-75
2023/07/01 10:38:52;;;;;;;3.60;2.42;;;;;;;20.63;59.13;95766.13;5089899;28;20047;-75
2023/07/01 10:41:54;;;;;;;3.88;2.53;;;;;;;20.57;55.96;95763.78;5089241;28;20051;-75
2023/07/01 10:44:23;;;;;;;4.70;3.05;;;;;;;20.44;55.53;95761.78;5064855;28;20051;-75
2023/07/01 10:47:15;;;;;;;5.03;3.20;;;;;;;20.16;57.06;95755.06;5079307;28;20037;-75
2023/07/01 10:50:06;;;;;;;3.97;2.72;;;;;;;20.15;55.64;95753.50;5036935;28;20048;-74
2023/07/01 10:52:33;;;;;;;7.45;3.00;;;;;;;20.05;59.07;95755.06;5059349;28;20599;-75
2023/07/01 10:55:02;;;;;;;4.35;2.97;;;;;;;20.10;58.99;95751.13;5069964;28;20044;-75
2023/07/01 10:57:30;;;;;;;4.85;2.70;;;;;;;19.83;57.07;95747.91;5070599;28;20040;-74
2023/07/01 11:00:30;;;;;;;5.57;2.63;;;;;;;19.69;56.62;95748.69;5070565;28;20052;-74
2023/07/01 11:02:56;;;;;;;5.68;2.80;;;;;;;19.71;58.40;95740.81;5079653;28;20399;-75
2023/07/01 11:05:28;;;;;;;5.38;2.97;;;;;;;19.85;58.82;95734.53;5070244;28;20123;-74
2023/07/01 11:07:57;;;;;;;4.53;2.70;;;;;;;19.93;58.54;95736.09;5070434;28;20396;-74
2023/07/01 11:10:23;;;;;;;6.28;3.00;;;;;;;19.89;56.58;95729.78;5061746;28;20407;-74
2023/07/01 11:12:50;;;;;;;6.15;3.30;;;;;;;19.97;57.38;95725.84;5063658;28;20049;-74
2023/07/01 11:15:17;;;;;;;5.93;2.83;;;;;;;20.10;59.12;95722.66;5051789;28;20037;-74
2023/07/01 11:17:52;;;;;;;7.80;3.10;;;;;;;20.02;57.86;95716.38;5069976;28;20538;-74
2023/07/01 11:20:19;;;;;;;4.43;3.15;;;;;;;20.01;56.95;95717.56;5050484;28;20072;-74
2023/07/01 11:22:47;;;;;;;6.45;3.42;;;;;;;20.13;58.08;95710.84;5058659;28;20059;-74
2023/07/01 11:25:14;;;;;;;4.47;3.55;;;;;;;19.89;56.51;95707.69;5049826;28;20419;-74